Time;durP1;ratioP1;P1;durP2;ratioP2;P2;SDS_P1;SDS_P2;PMS_P1;PMS_P2;Temp;Humidity;BMP_temperature;BMP_pressure;BME280_temperature;BME280_humidity;BME280_pressure;Samples;Min_cycle;Max_cycle;Signal;HPM_P1;HPM_P2
2023/03/05 00:01:53;;;;;;;;;;;;;;;;;;5110630;28;804;-70
2023/03/05 00:04:20;;;;;;;;;;;;;;;;;;5110431;28;860;-70
2023/03/05 00:06:45;;;;;;;;;;;;;;;;;;5110805;28;832;-70
2023/03/05 00:09:11;;;;;;;;;;;;;;;;;;5108911;28;1116;-70
2023/03/05 00:11:36;;;;;;;;;;;;;;;;;;5109060;28;1155;-70
2023/03/05 00:14:05;;;;;;;;;;;;;;;;;;5109597;28;1094;-69
2023/03/05 00:16:31;;;;;;;;;;;;;;;;;;5109593;28;859;-70
2023/03/05 00:18:57;;;;;;;;;;;;;;;;;;5092060;28;1905;-70
2023/03/05 00:21:24;;;;;;;;;;;;;;;;;;5109308;28;1260;-69
2023/03/05 00:23:50;;;;;;;;;;;;;;;;;;5111251;28;1073;-70
2023/03/05 00:26:16;;;;;;;;;;;;;;;;;;5112541;28;939;-70
2023/03/05 00:28:41;;;;;;;;;;;;;;;;;;5111120;28;1110;-70
2023/03/05 00:31:07;;;;;;;;;;;;;;;;;;5110377;28;824;-70
2023/03/05 00:33:32;;;;;;;;;;;;;;;;;;5110507;28;904;-70
2023/03/05 00:36:00;;;;;;;;;;;;;;;;;;5110364;28;828;-70
2023/03/05 00:38:25;;;;;;;;;;;;;;;;;;5108465;28;1904;-70
2023/03/05 00:40:51;;;;;;;;;;;;;;;;;;5108678;28;1177;-70
2023/03/05 00:43:16;;;;;;;;;;;;;;;;;;5108773;28;1272;-70
2023/03/05 00:45:41;;;;;;;;;;;;;;;;;;5091553;28;1245;-70
2023/03/05 00:48:06;;;;;;;;;;;;;;;;;;5110352;28;975;-70
2023/03/05 00:50:32;;;;;;;;;;;;;;;;;;5110422;28;919;-70
2023/03/05 00:52:57;;;;;;;;;;;;;;;;;;5109863;28;1167;-70
2023/03/05 00:55:22;;;;;;;;;;;;;;;;;;5110214;28;1093;-70
2023/03/05 00:57:48;;;;;;;;;;;;;;;;;;5112451;28;875;-70
2023/03/05 01:00:14;;;;;;;;;;;;;;;;;;5111102;28;1902;-70
2023/03/05 01:02:39;;;;;;;;;;;;;;;;;;5112472;28;1014;-70
2023/03/05 01:05:04;;;;;;;;;;;;;;;;;;5111958;28;911;-70
2023/03/05 01:07:29;;;;;;;;;;;;;;;;;;5110810;28;1143;-70
2023/03/05 01:09:55;;;;;;;;;;;;;;;;;;5110329;28;876;-69
2023/03/05 01:12:20;;;;;;;;;;;;;;;;;;5110489;28;1154;-69
2023/03/05 01:14:45;;;;;;;;;;;;;;;;;;5110597;28;1106;-70
2023/03/05 01:17:10;;;;;;;;;;;;;;;;;;5110859;28;1122;-70
2023/03/05 01:19:36;;;;;;;;;;;;;;;;;;5112284;28;1917;-70
2023/03/05 01:22:02;;;;;;;;;;;;;;;;;;5093626;28;1274;-70
2023/03/05 01:24:27;;;;;;;;;;;;;;;;;;5110691;28;1161;-69
2023/03/05 01:26:52;;;;;;;;;;;;;;;;;;5110653;28;1134;-69
2023/03/05 01:29:17;;;;;;;;;;;;;;;;;;5114398;28;887;-69
2023/03/05 01:31:43;;;;;;;;;;;;;;;;;;5097074;28;1189;-69
2023/03/05 01:34:08;;;;;;;;;;;;;;;;;;5114168;28;1169;-69
2023/03/05 01:36:33;;;;;;;;;;;;;;;;;;5115445;28;942;-69
2023/03/05 01:38:59;;;;;;;;;;;;;;;;;;5114850;28;1969;-69
2023/03/05 01:41:25;;;;;;;;;;;;;;;;;;5097162;28;1241;-70
2023/03/05 01:43:51;;;;;;;;;;;;;;;;;;5113660;28;1369;-69
2023/03/05 01:46:17;;;;;;;;;;;;;;;;;;5113700;28;1174;-70
2023/03/05 01:48:44;;;;;;;;;;;;;;;;;;5113971;28;1220;-70
2023/03/05 01:51:10;;;;;;;;;;;;;;;;;;5113535;28;1193;-70
2023/03/05 01:53:35;;;;;;;;;;;;;;;;;;5115067;28;1219;-70
2023/03/05 01:56:01;;;;;;;;;;;;;;;;;;5114658;28;903;-70
2023/03/05 01:58:27;;;;;;;;;;;;;;;;;;5113798;28;1906;-70
2023/03/05 02:00:53;;;;;;;;;;;;;;;;;;5113642;28;1209;-70
2023/03/05 02:03:19;;;;;;;;;;;;;;;;;;5113397;28;1304;-70
2023/03/05 02:05:44;;;;;;;;;;;;;;;;;;5114505;28;891;-70
2023/03/05 02:08:17;;;;;;;;;;;;;;;;;;5113248;28;1114;-70
2023/03/05 02:10:47;;;;;;;;;;;;;;;;;;5114695;28;812;-70
2023/03/05 02:13:14;;;;;;;;;;;;;;;;;;5114330;28;828;-69
2023/03/05 02:15:40;;;;;;;;;;;;;;;;;;5114945;28;965;-70
2023/03/05 02:18:06;;;;;;;;;;;;;;;;;;5113639;28;1173;-70
2023/03/05 02:20:43;;;;;;;;;;;;;;;;;;5113573;28;1909;-70
2023/03/05 02:23:08;;;;;;;;;;;;;;;;;;5112893;28;1224;-70
2023/03/05 02:25:33;;;;;;;;;;;;;;;;;;5096406;28;1190;-70
2023/03/05 02:28:01;;;;;;;;;;;;;;;;;;5113517;28;1206;-70
2023/03/05 02:30:27;;;;;;;;;;;;;;;;;;5113097;28;1150;-70
2023/03/05 02:32:52;;;;;;;;;;;;;;;;;;5112799;28;1146;-70
2023/03/05 02:35:18;;;;;;;;;;;;;;;;;;5114813;28;800;-70
2023/03/05 02:37:43;;;;;;;;;;;;;;;;;;5114133;28;812;-70
2023/03/05 02:40:09;;;;;;;;;;;;;;;;;;5112698;28;1971;-70
2023/03/05 02:42:35;;;;;;;;;;;;;;;;;;5112549;28;1321;-70
2023/03/05 02:45:01;;;;;;;;;;;;;;;;;;5113927;28;817;-70
2023/03/05 02:47:26;;;;;;;;;;;;;;;;;;5113567;27;883;-70
2023/03/05 02:49:52;;;;;;;;;;;;;;;;;;5112903;28;1225;-70
2023/03/05 02:52:18;;;;;;;;;;;;;;;;;;5113482;28;1028;-70
2023/03/05 02:54:43;;;;;;;;;;;;;;;;;;5112452;28;1209;-70
2023/03/05 02:57:08;;;;;;;;;;;;;;;;;;5095016;28;1174;-69
2023/03/05 02:59:34;;;;;;;;;;;;;;;;;;5112307;28;1922;-70
2023/03/05 03:01:59;;;;;;;;;;;;;;;;;;5095640;28;1190;-70
2023/03/05 03:04:24;;;;;;;;;;;;;;;;;;5112275;28;1253;-70
2023/03/05 03:06:50;;;;;;;;;;;;;;;;;;5112177;28;910;-70
2023/03/05 03:09:15;;;;;;;;;;;;;;;;;;5095143;28;1348;-70
2023/03/05 03:11:40;;;;;;;;;;;;;;;;;;5113375;28;867;-70
2023/03/05 03:14:06;;;;;;;;;;;;;;;;;;5095398;28;1170;-70
2023/03/05 03:16:32;;;;;;;;;;;;;;;;;;5111997;28;1207;-70
2023/03/05 03:18:57;;;;;;;;;;;;;;;;;;5111742;28;1953;-70
2023/03/05 03:21:23;;;;;;;;;;;;;;;;;;5111928;28;1125;-70
2023/03/05 03:23:48;;;;;;;;;;;;;;;;;;5112343;28;1261;-70
2023/03/05 03:26:13;;;;;;;;;;;;;;;;;;5111713;28;1177;-70
2023/03/05 03:28:39;;;;;;;;;;;;;;;;;;5095225;28;1182;-70
2023/03/05 03:31:04;;;;;;;;;;;;;;;;;;5113075;28;844;-70
2023/03/05 03:33:30;;;;;;;;;;;;;;;;;;5113092;28;981;-70
2023/03/05 03:35:55;;;;;;;;;;;;;;;;;;5111628;28;1185;-70
2023/03/05 03:38:20;;;;;;;;;;;;;;;;;;5113235;28;879;-70
2023/03/05 03:40:45;;;;;;;;;;;;;;;;;;5113020;28;1898;-70
2023/03/05 03:43:11;;;;;;;;;;;;;;;;;;5112799;28;903;-70
2023/03/05 03:45:39;;;;;;;;;;;;;;;;;;5111784;28;1070;-71
2023/03/05 03:48:04;;;;;;;;;;;;;;;;;;5113117;28;899;-71
2023/03/05 03:50:29;;;;;;;;;;;;;;;;;;5111421;28;895;-71
2023/03/05 03:52:55;;;;;;;;;;;;;;;;;;5111767;28;1124;-70
2023/03/05 03:55:20;;;;;;;;;;;;;;;;;;5111616;28;945;-70
2023/03/05 03:57:46;;;;;;;;;;;;;;;;;;5113048;28;895;-70
2023/03/05 04:00:11;;;;;;;;;;;;;;;;;;5111389;28;1910;-70
2023/03/05 04:02:36;;;;;;;;;;;;;;;;;;5095161;28;1316;-70
2023/03/05 04:05:02;;;;;;;;;;;;;;;;;;5112919;28;990;-70
2023/03/05 04:07:28;;;;;;;;;;;;;;;;;;5112074;28;821;-70
2023/03/05 04:09:53;;;;;;;;;;;;;;;;;;5111368;28;796;-70
2023/03/05 04:12:18;;;;;;;;;;;;;;;;;;5111471;28;1150;-70
2023/03/05 04:14:47;;;;;;;;;;;;;;;;;;5111179;28;1173;-70
2023/03/05 04:17:13;;;;;;;;;;;;;;;;;;5093820;28;1206;-70
2023/03/05 04:19:39;;;;;;;;;;;;;;;;;;5112496;28;1901;-70
2023/03/05 04:22:05;;;;;;;;;;;;;;;;;;5112242;28;915;-70
2023/03/05 04:24:30;;;;;;;;;;;;;;;;;;5111448;28;840;-70
2023/03/05 04:26:55;;;;;;;;;;;;;;;;;;5110875;28;1242;-70
2023/03/05 04:29:20;;;;;;;;;;;;;;;;;;5111162;28;1269;-70
2023/03/05 04:31:46;;;;;;;;;;;;;;;;;;5111057;28;1145;-70
2023/03/05 04:34:11;;;;;;;;;;;;;;;;;;5111257;28;1273;-70
2023/03/05 04:36:36;;;;;;;;;;;;;;;;;;5111253;28;1105;-70
2023/03/05 04:39:03;;;;;;;;;;;;;;;;;;5111201;28;1901;-70
2023/03/05 04:41:28;;;;;;;;;;;;;;;;;;5112663;28;958;-70
2023/03/05 04:43:53;;;;;;;;;;;;;;;;;;5111030;28;880;-70
2023/03/05 04:46:19;;;;;;;;;;;;;;;;;;5111041;28;859;-70
2023/03/05 04:48:44;;;;;;;;;;;;;;;;;;5094080;28;1229;-70
2023/03/05 04:51:09;;;;;;;;;;;;;;;;;;5110405;28;1261;-70
2023/03/05 04:53:35;;;;;;;;;;;;;;;;;;5110248;28;1197;-70
2023/03/05 04:56:00;;;;;;;;;;;;;;;;;;5111273;28;881;-70
2023/03/05 04:58:26;;;;;;;;;;;;;;;;;;5112530;28;864;-70
2023/03/05 05:00:52;;;;;;;;;;;;;;;;;;5112689;28;2015;-70
2023/03/05 05:03:17;;;;;;;;;;;;;;;;;;5113183;28;1034;-70
2023/03/05 05:05:42;;;;;;;;;;;;;;;;;;5115094;28;1261;-70
2023/03/05 05:08:08;;;;;;;;;;;;;;;;;;5115145;28;935;-70
2023/03/05 05:10:34;;;;;;;;;;;;;;;;;;5116128;28;935;-70
2023/03/05 05:12:59;;;;;;;;;;;;;;;;;;5116749;28;796;-70
2023/03/05 05:15:24;;;;;;;;;;;;;;;;;;5116288;28;832;-70
2023/03/05 05:17:51;;;;;;;;;;;;;;;;;;5116332;28;878;-70
2023/03/05 05:20:16;;;;;;;;;;;;;;;;;;5114968;28;1973;-70
2023/03/05 05:22:42;;;;;;;;;;;;;;;;;;5116418;28;835;-70
2023/03/05 05:25:07;;;;;;;;;;;;;;;;;;5114774;28;872;-70
2023/03/05 05:27:33;;;;;;;;;;;;;;;;;;5116263;28;816;-70
2023/03/05 05:29:59;;;;;;;;;;;;;;;;;;5115749;28;891;-70
2023/03/05 05:32:24;;;;;;;;;;;;;;;;;;5115834;28;780;-70
2023/03/05 05:34:54;;;;;;;;;;;;;;;;;;5114611;28;946;-70
2023/03/05 05:37:19;;;;;;;;;;;;;;;;;;5113671;28;1248;-70
2023/03/05 05:39:48;;;;;;;;;;;;;;;;;;5114131;28;1909;-70
2023/03/05 05:42:14;;;;;;;;;;;;;;;;;;5097484;28;1154;-70
2023/03/05 05:44:39;;;;;;;;;;;;;;;;;;5115631;28;935;-70
2023/03/05 05:47:05;;;;;;;;;;;;;;;;;;5115746;28;864;-70
2023/03/05 05:49:30;;;;;;;;;;;;;;;;;;5115284;28;991;-70
2023/03/05 05:51:56;;;;;;;;;;;;;;;;;;5096773;28;1166;-70
2023/03/05 05:54:21;;;;;;;;;;;;;;;;;;5114409;28;1223;-70
2023/03/05 05:56:47;;;;;;;;;;;;;;;;;;5114396;28;899;-70
2023/03/05 05:59:12;;;;;;;;;;;;;;;;;;5113270;28;1906;-70
2023/03/05 06:01:38;;;;;;;;;;;;;;;;;;5096503;28;1146;-70
2023/03/05 06:04:03;;;;;;;;;;;;;;;;;;5113701;28;1213;-70
2023/03/05 06:06:29;;;;;;;;;;;;;;;;;;5114845;28;887;-70
2023/03/05 06:08:54;;;;;;;;;;;;;;;;;;5115163;28;853;-70
2023/03/05 06:11:20;;;;;;;;;;;;;;;;;;5112801;28;1197;-70
2023/03/05 06:13:46;;;;;;;;;;;;;;;;;;5114990;28;911;-70
2023/03/05 06:16:13;;;;;;;;;;;;;;;;;;5113447;28;1213;-71
2023/03/05 06:18:38;;;;;;;;;;;;;;;;;;5114632;28;1898;-71
2023/03/05 06:21:05;;;;;;;;;;;;;;;;;;5114681;28;825;-71
2023/03/05 06:23:30;;;;;;;;;;;;;;;;;;5114293;28;891;-71
2023/03/05 06:26:00;;;;;;;;;;;;;;;;;;5114891;28;796;-71
2023/03/05 06:28:26;;;;;;;;;;;;;;;;;;5112419;28;1233;-71
2023/03/05 06:30:58;;;;;;;;;;;;;;;;;;5114513;28;851;-71
2023/03/05 06:33:24;;;;;;;;;;;;;;;;;;5114718;27;923;-71
2023/03/05 06:35:50;;;;;;;;;;;;;;;;;;5112999;28;1174;-71
2023/03/05 06:38:15;;;;;;;;;;;;;;;;;;5095935;28;1224;-71
2023/03/05 06:40:40;;;;;;;;;;;;;;;;;;5114458;28;1902;-71
2023/03/05 06:43:06;;;;;;;;;;;;;;;;;;5113801;28;959;-71
2023/03/05 06:45:31;;;;;;;;;;;;;;;;;;5112962;28;1174;-71
2023/03/05 06:47:57;;;;;;;;;;;;;;;;;;5113272;28;1095;-71
2023/03/05 06:50:22;;;;;;;;;;;;;;;;;;5114500;28;970;-71
2023/03/05 06:52:48;;;;;;;;;;;;;;;;;;5113047;28;1041;-71
2023/03/05 06:55:13;;;;;;;;;;;;;;;;;;5112621;28;1138;-71
2023/03/05 06:57:38;;;;;;;;;;;;;;;;;;5095060;28;1170;-70
2023/03/05 07:00:10;;;;;;;;;;;;;;;;;;5114345;28;1971;-70
2023/03/05 07:02:39;;;;;;;;;;;;;;;;;;5112651;28;1390;-71
2023/03/05 07:05:04;;;;;;;;;;;;;;;;;;5112752;28;1110;-70
2023/03/05 07:07:30;;;;;;;;;;;;;;;;;;5112164;28;1244;-71
2023/03/05 07:09:56;;;;;;;;;;;;;;;;;;5113744;28;847;-71
2023/03/05 07:12:21;;;;;;;;;;;;;;;;;;5113783;28;883;-71
2023/03/05 07:14:47;;;;;;;;;;;;;;;;;;5095531;28;1202;-71
2023/03/05 07:17:14;;;;;;;;;;;;;;;;;;5114439;28;903;-69
2023/03/05 07:19:39;;;;;;;;;;;;;;;;;;5113496;28;1941;-69
2023/03/05 07:22:05;;;;;;;;;;;;;;;;;;5113633;28;990;-69
2023/03/05 07:24:30;;;;;;;;;;;;;;;;;;5113901;28;1227;-70
2023/03/05 07:26:58;;;;;;;;;;;;;;;;;;5112455;28;824;-70
2023/03/05 07:29:25;;;;;;;;;;;;;;;;;;5113594;28;855;-70
2023/03/05 07:31:50;;;;;;;;;;;;;;;;;;5112576;28;1086;-71
2023/03/05 07:34:16;;;;;;;;;;;;;;;;;;5112035;28;1304;-70
2023/03/05 07:36:41;;;;;;;;;;;;;;;;;;5113230;28;816;-71
2023/03/05 07:39:07;;;;;;;;;;;;;;;;;;5113085;28;1943;-70
2023/03/05 07:41:33;;;;;;;;;;;;;;;;;;5099049;28;1167;-70
2023/03/05 07:43:58;;;;;;;;;;;;;;;;;;5092830;28;777;-70
2023/03/05 07:46:25;;;;;;;;;;;;;;;;;;5092586;28;923;-70
2023/03/05 07:48:53;;;;;;;;;;;;;;;;;;5091782;28;1131;-71
2023/03/05 07:51:19;;;;;;;;;;;;;;;;;;5091820;28;1411;-71
2023/03/05 07:53:45;;;;;;;;;;;;;;;;;;5091437;28;1194;-71
2023/03/05 07:56:10;;;;;;;;;;;;;;;;;;5091596;28;1158;-71
2023/03/05 07:58:36;;;;;;;;;;;;;;;;;;5092664;28;1902;-71
2023/03/05 08:01:02;;;;;;;;;;;;;;;;;;5075024;28;1182;-71
2023/03/05 08:03:27;;;;;;;;;;;;;;;;;;5091409;28;1174;-71
2023/03/05 08:05:53;;;;;;;;;;;;;;;;;;5091830;28;900;-71
2023/03/05 08:08:18;;;;;;;;;;;;;;;;;;5091370;28;1147;-70
2023/03/05 08:10:43;;;;;;;;;;;;;;;;;;5092746;28;935;-71
2023/03/05 08:13:09;;;;;;;;;;;;;;;;;;5075052;28;1142;-71
2023/03/05 08:15:35;;;;;;;;;;;;;;;;;;5091242;28;844;-71
2023/03/05 08:18:01;;;;;;;;;;;;;;;;;;5091934;28;1249;-71
2023/03/05 08:20:26;;;;;;;;;;;;;;;;;;5092647;28;1979;-71
2023/03/05 08:22:51;;;;;;;;;;;;;;;;;;5091659;28;1190;-71
2023/03/05 08:25:16;;;;;;;;;;;;;;;;;;5091598;28;1150;-71
2023/03/05 08:27:43;;;;;;;;;;;;;;;;;;5091206;28;817;-71
2023/03/05 08:30:10;;;;;;;;;;;;;;;;;;5091948;28;896;-71
2023/03/05 08:32:35;;;;;;;;;;;;;;;;;;5091879;28;832;-71
2023/03/05 08:35:03;;;;;;;;;;;;;;;;;;5091988;28;943;-71
2023/03/05 08:37:28;;;;;;;;;;;;;;;;;;5091828;28;1198;-70
2023/03/05 08:39:55;;;;;;;;;;;;;;;;;;5096163;28;1949;-71
2023/03/05 08:42:20;;;;;;;;;;;;;;;;;;5094366;28;1332;-71
2023/03/05 08:44:45;;;;;;;;;;;;;;;;;;5078147;28;1282;-70
2023/03/05 08:47:11;;;;;;;;;;;;;;;;;;5095930;28;885;-70
2023/03/05 08:49:36;;;;;;;;;;;;;;;;;;5077795;28;1208;-71
2023/03/05 08:52:02;;;;;;;;;;;;;;;;;;5094632;28;1076;-70
2023/03/05 08:54:27;;;;;;;;;;;;;;;;;;5093791;28;1194;-69
2023/03/05 08:56:52;;;;;;;;;;;;;;;;;;5094253;28;1107;-70
2023/03/05 08:59:18;;;;;;;;;;;;;;;;;;5095746;28;1965;-69
2023/03/05 09:01:43;;;;;;;;;;;;;;;;;;5094931;28;989;-71
2023/03/05 09:04:08;;;;;;;;;;;;;;;;;;5095377;28;955;-71
2023/03/05 09:06:38;;;;;;;;;;;;;;;;;;5094275;28;804;-70
2023/03/05 09:09:03;;;;;;;;;;;;;;;;;;5077388;28;1309;-70
2023/03/05 09:11:28;;;;;;;;;;;;;;;;;;5093404;28;1254;-70
2023/03/05 09:13:53;;;;;;;;;;;;;;;;;;5094077;28;1224;-70
2023/03/05 09:16:19;;;;;;;;;;;;;;;;;;5093484;28;901;-70
2023/03/05 09:18:44;;;;;;;;;;;;;;;;;;5093635;28;1967;-70
2023/03/05 09:21:11;;;;;;;;;;;;;;;;;;5097668;28;1266;-70
2023/03/05 09:23:36;;;;;;;;;;;;;;;;;;5107294;28;1198;-70
2023/03/05 09:26:04;;;;;;;;;;;;;;;;;;5108187;28;1214;-70
2023/03/05 09:28:29;;;;;;;;;;;;;;;;;;5114914;28;978;-70
2023/03/05 09:30:54;;;;;;;;;;;;;;;;;;5115622;28;1041;-70
2023/03/05 09:33:19;;;;;;;;;;;;;;;;;;5115119;28;844;-70
2023/03/05 09:35:45;;;;;;;;;;;;;;;;;;5096652;28;1244;-70
2023/03/05 09:38:10;;;;;;;;;;;;;;;;;;5115161;28;843;-70
2023/03/05 09:40:40;;;;;;;;;;;;;;;;;;5096021;28;1963;-70
2023/03/05 09:43:12;;;;;;;;;;;;;;;;;;5114072;28;1157;-70
2023/03/05 09:45:40;;;;;;;;;;;;;;;;;;5113402;28;1185;-70
2023/03/05 09:48:06;;;;;;;;;;;;;;;;;;5115387;28;792;-70
2023/03/05 09:50:40;;;;;;;;;;;;;;;;;;5113903;28;1032;-70
2023/03/05 09:53:21;;;;;;;;;;;;;;;;;;5114621;28;1033;-70
2023/03/05 09:55:57;;;;;;;;;;;;;;;;;;5112224;28;1272;-70
2023/03/05 09:58:45;;;;;;;;;;;;;;;;;;5112483;28;1153;-70
2023/03/05 10:01:25;;;;;;;;;;;;;;;;;;5113725;28;952;-70
2023/03/05 10:04:00;;;;;;;;;;;;;;;;;;5112393;28;1316;-70
2023/03/05 10:06:25;;;;;;;;;;;;;;;;;;5111832;28;1154;-70
2023/03/05 10:08:50;;;;;;;;;;;;;;;;;;5112920;28;857;-70
2023/03/05 10:11:25;;;;;;;;;;;;;;;;;;5112104;28;1065;-70
2023/03/05 10:13:51;;;;;;;;;;;;;;;;;;5112956;28;914;-70
2023/03/05 10:16:25;;;;;;;;;;;;;;;;;;5111370;28;817;-70
2023/03/05 10:19:03;;;;;;;;;;;;;;;;;;5112919;28;1909;-71
2023/03/05 10:21:47;;;;;;;;;;;;;;;;;;5112861;28;895;-70
2023/03/05 10:24:17;;;;;;;;;;;;;;;;;;5112802;28;1042;-71
2023/03/05 10:27:01;;;;;;;;;;;;;;;;;;5111319;28;1248;-71
2023/03/05 10:29:48;;;;;;;;;;;;;;;;;;5111419;28;1547;-70
2023/03/05 10:32:43;;;;;;;;;;;;;;;;;;5113018;28;922;-70
2023/03/05 10:35:20;;;;;;;;;;;;;;;;;;5103560;28;1179;-71
2023/03/05 10:37:57;;;;;;;;;;;;;;;;;;5111549;28;1130;-71
2023/03/05 10:40:29;;;;;;;;;;;;;;;;;;5112826;28;1961;-70
2023/03/05 10:42:57;;;;;;;;;;;;;;;;;;5111215;28;1323;-70
2023/03/05 10:45:30;;;;;;;;;;;;;;;;;;5111483;28;1269;-71
2023/03/05 10:48:04;;;;;;;;;;;;;;;;;;5112806;28;920;-70
2023/03/05 10:50:36;;;;;;;;;;;;;;;;;;5112749;28;844;-70
2023/03/05 10:53:08;;;;;;;;;;;;;;;;;;5068029;28;1270281;-70
2023/03/05 10:55:33;;;;;;;;;;;;;;;;;;5113820;28;765;-70
2023/03/05 10:58:00;;;;;;;;;;;;;;;;;;5111593;28;840;-70
2023/03/05 11:00:26;;;;;;;;;;;;;;;;;;5112301;28;1977;-70
2023/03/05 11:03:05;;;;;;;;;;;;;;;;;;5108707;28;1268;-70
2023/03/05 11:05:39;;;;;;;;;;;;;;;;;;5092797;28;883;-70
2023/03/05 11:08:23;;;;;;;;;;;;;;;;;;5093170;28;891;-70
2023/03/05 11:11:08;;;;;;;;;;;;;;;;;;5093123;28;919;-70
2023/03/05 11:13:42;;;;;;;;;;;;;;;;;;5080793;28;1318;-70
2023/03/05 11:16:14;;;;;;;;;;;;;;;;;;5093490;28;895;-70
2023/03/05 11:18:41;;;;;;;;;;;;;;;;;;5091486;28;1162;-69
2023/03/05 11:21:11;;;;;;;;;;;;;;;;;;5091913;28;1893;-70
2023/03/05 11:23:37;;;;;;;;;;;;;;;;;;5091577;28;1170;-70
2023/03/05 11:26:02;;;;;;;;;;;;;;;;;;5093226;28;983;-70
2023/03/05 11:28:33;;;;;;;;;;;;;;;;;;5092659;28;1022;-69
2023/03/05 11:31:23;;;;;;;;;;;;;;;;;;5092935;28;872;-70
2023/03/05 11:33:54;;;;;;;;;;;;;;;;;;5083772;28;1310;-70
2023/03/05 11:36:24;;;;;;;;;;;;;;;;;;5093461;28;883;-70
2023/03/05 11:39:08;;;;;;;;;;;;;;;;;;5091753;28;1988;-70
2023/03/05 11:41:36;;;;;;;;;;;;;;;;;;5091859;28;1374;-70
2023/03/05 11:44:04;;;;;;;;;;;;;;;;;;5093106;28;922;-70
2023/03/05 11:46:33;;;;;;;;;;;;;;;;;;5091361;28;1146;-70
2023/03/05 11:48:59;;;;;;;;;;;;;;;;;;5092632;28;880;-70
2023/03/05 11:51:26;;;;;;;;;;;;;;;;;;5074429;28;1159;-70
2023/03/05 11:53:55;;;;;;;;;;;;;;;;;;5090752;28;1156;-70
2023/03/05 11:56:30;;;;;;;;;;;;;;;;;;5091087;28;1304;-70
2023/03/05 11:59:14;;;;;;;;;;;;;;;;;;5092327;28;1898;-70
2023/03/05 12:01:46;;;;;;;;;;;;;;;;;;5090650;28;1237;-69
2023/03/05 12:04:12;;;;;;;;;;;;;;;;;;5091961;28;817;-70
2023/03/05 12:06:42;;;;;;;;;;;;;;;;;;5092384;28;887;-70
2023/03/05 12:09:29;;;;;;;;;;;;;;;;;;5091737;28;958;-70
2023/03/05 12:12:05;;;;;;;;;;;;;;;;;;5092085;28;762;-71
2023/03/05 12:14:33;;;;;;;;;;;;;;;;;;5091696;28;849;-70
2023/03/05 12:17:04;;;;;;;;;;;;;;;;;;5090403;28;1242;-70
2023/03/05 12:19:56;;;;;;;;;;;;;;;;;;5090311;28;1949;-70
2023/03/05 12:22:23;;;;;;;;;;;;;;;;;;5075420;28;1186;-70
2023/03/05 12:24:48;;;;;;;;;;;;;;;;;;5090713;28;1288;-70
2023/03/05 12:27:15;;;;;;;;;;;;;;;;;;5092257;28;888;-71
2023/03/05 12:29:45;;;;;;;;;;;;;;;;;;5090344;28;1257;-70
2023/03/05 12:32:32;;;;;;;;;;;;;;;;;;5092093;28;833;-70
2023/03/05 12:34:58;;;;;;;;;;;;;;;;;;5091169;28;1489;-71
2023/03/05 12:37:23;;;;;;;;;;;;;;;;;;5091678;28;954;-70
2023/03/05 12:40:11;;;;;;;;;;;;;;;;;;5090354;28;1973;-70
2023/03/05 12:42:37;;;;;;;;;;;;;;;;;;5085519;28;1039;-70
2023/03/05 12:45:08;;;;;;;;;;;;;;;;;;5092472;28;792;-70
2023/03/05 12:47:33;;;;;;;;;;;;;;;;;;5092238;28;955;-70
2023/03/05 12:49:59;;;;;;;;;;;;;;;;;;5090919;28;1146;-70
2023/03/05 12:52:25;;;;;;;;;;;;;;;;;;5074066;28;1265;-71
2023/03/05 12:55:14;;;;;;;;;;;;;;;;;;5092109;28;1191;-71
2023/03/05 12:57:41;;;;;;;;;;;;;;;;;;5086173;28;1048;-70
2023/03/05 13:00:07;;;;;;;;;;;;;;;;;;5090488;28;1906;-70
2023/03/05 13:02:38;;;;;;;;;;;;;;;;;;5091773;28;832;-70
2023/03/05 13:05:16;;;;;;;;;;;;;;;;;;5091033;28;1292;-70
2023/03/05 13:07:41;;;;;;;;;;;;;;;;;;5091721;28;895;-71
2023/03/05 13:10:19;;;;;;;;;;;;;;;;;;5073609;28;1277;-70
2023/03/05 13:12:51;;;;;;;;;;;;;;;;;;5090523;28;1114;-72
2023/03/05 13:15:16;;;;;;;;;;;;;;;;;;5090750;28;1391;-72
2023/03/05 13:17:55;;;;;;;;;;;;;;;;;;5073460;28;1072;-72
2023/03/05 13:20:41;;;;;;;;;;;;;;;;;;5092050;28;1959;-72
2023/03/05 13:23:06;;;;;;;;;;;;;;;;;;5091206;28;1340;-72
2023/03/05 13:25:32;;;;;;;;;;;;;;;;;;5095102;28;1023;-72
2023/03/05 13:28:06;;;;;;;;;;;;;;;;;;5094422;28;1071;-71
2023/03/05 13:30:31;;;;;;;;;;;;;;;;;;5094332;28;1160;-72
2023/03/05 13:32:59;;;;;;;;;;;;;;;;;;5094291;28;1170;-72
2023/03/05 13:35:24;;;;;;;;;;;;;;;;;;5094394;28;1277;-72
2023/03/05 13:37:49;;;;;;;;;;;;;;;;;;5095668;28;939;-71
2023/03/05 13:40:25;;;;;;;;;;;;;;;;;;5095415;28;1901;-71
2023/03/05 13:42:55;;;;;;;;;;;;;;;;;;5096718;28;1119;-71
2023/03/05 13:45:22;;;;;;;;;;;;;;;;;;5105514;28;1148;-71
2023/03/05 13:47:52;;;;;;;;;;;;;;;;;;5107966;28;1242;-71
2023/03/05 13:50:23;;;;;;;;;;;;;;;;;;5098606;28;1235;-71
2023/03/05 13:52:48;;;;;;;;;;;;;;;;;;5100833;28;1298;-72
2023/03/05 13:55:15;;;;;;;;;;;;;;;;;;5076586;28;1314;-71
2023/03/05 13:57:44;;;;;;;;;;;;;;;;;;5093891;28;1209;-72
2023/03/05 14:00:28;;;;;;;;;;;;;;;;;;5095248;28;1977;-71
2023/03/05 14:02:54;;;;;;;;;;;;;;;;;;5094173;28;1301;-71
2023/03/05 14:05:20;;;;;;;;;;;;;;;;;;5093952;28;1231;-72
2023/03/05 14:07:47;;;;;;;;;;;;;;;;;;5095452;28;867;-71
2023/03/05 14:10:31;;;;;;;;;;;;;;;;;;5095042;28;840;-71
2023/03/05 14:12:57;;;;;;;;;;;;;;;;;;5095504;28;727;-71
2023/03/05 14:15:22;;;;;;;;;;;;;;;;;;5095928;28;966;-71
2023/03/05 14:17:48;;;;;;;;;;;;;;;;;;5094327;28;1043;-71
2023/03/05 14:20:21;;;;;;;;;;;;;;;;;;5093737;28;1969;-71
2023/03/05 14:22:48;;;;;;;;;;;;;;;;;;5094194;28;1202;-72
2023/03/05 14:25:28;;;;;;;;;;;;;;;;;;5094825;28;887;-71
2023/03/05 14:27:54;;;;;;;;;;;;;;;;;;5093960;28;833;-71
2023/03/05 14:30:22;;;;;;;;;;;;;;;;;;5093653;28;1264;-71
2023/03/05 14:32:48;;;;;;;;;;;;;;;;;;5094168;28;1292;-71
2023/03/05 14:35:18;;;;;;;;;;;;;;;;;;5093973;28;900;-72
2023/03/05 14:37:45;;;;;;;;;;;;;;;;;;5095289;28;1461;-71
2023/03/05 14:40:11;;;;;;;;;;;;;;;;;;5093607;28;1963;-71
2023/03/05 14:42:36;;;;;;;;;;;;;;;;;;5094959;28;816;-71
2023/03/05 14:45:21;;;;;;;;;;;;;;;;;;5097837;28;1246;-71
2023/03/05 14:47:48;;;;;;;;;;;;;;;;;;5104872;28;1441;-71
2023/03/05 14:50:15;;;;;;;;;;;;;;;;;;5114049;28;812;-71
2023/03/05 14:52:40;;;;;;;;;;;;;;;;;;5113103;28;1037;-71
2023/03/05 14:55:06;;;;;;;;;;;;;;;;;;5111775;28;1288;-71
2023/03/05 14:57:32;;;;;;;;;;;;;;;;;;5111598;28;1189;-71
2023/03/05 14:59:57;;;;;;;;;;;;;;;;;;5105114;28;1978;-71
2023/03/05 15:02:23;;;;;;;;;;;;;;;;;;5101496;28;1179;-71
2023/03/05 15:04:48;;;;;;;;;;;;;;;;;;5111451;28;1201;-70
2023/03/05 15:07:17;;;;;;;;;;;;;;;;;;5109643;28;923;-70
2023/03/05 15:09:42;;;;;;;;;;;;;;;;;;5110828;28;1115;-70
2023/03/05 15:12:09;;;;;;;;;;;;;;;;;;5093170;28;1174;-71
2023/03/05 15:14:34;;;;;;;;;;;;;;;;;;5091166;28;1194;-71
2023/03/05 15:17:00;;;;;;;;;;;;;;;;;;5091413;28;947;-71
2023/03/05 15:19:25;;;;;;;;;;;;;;;;;;5092029;28;1909;-71
2023/03/05 15:21:50;;;;;;;;;;;;;;;;;;5075213;28;1351;-71
2023/03/05 15:24:16;;;;;;;;;;;;;;;;;;5075745;28;1213;-71
2023/03/05 15:26:41;;;;;;;;;;;;;;;;;;5092508;28;801;-71
2023/03/05 15:29:06;;;;;;;;;;;;;;;;;;5075350;28;1393;-71
2023/03/05 15:31:37;;;;;;;;;;;;;;;;;;5092047;28;903;-70
2023/03/05 15:34:02;;;;;;;;;;;;;;;;;;5074383;28;1325;-71
2023/03/05 15:36:27;;;;;;;;;;;;;;;;;;5090840;28;1323;-71
2023/03/05 15:38:53;;;;;;;;;;;;;;;;;;5091791;28;1303;-71
2023/03/05 15:41:18;;;;;;;;;;;;;;;;;;5091945;28;1963;-71
2023/03/05 15:43:43;;;;;;;;;;;;;;;;;;5092006;28;848;-71
2023/03/05 15:46:08;;;;;;;;;;;;;;;;;;5074527;28;1238;-71
2023/03/05 15:48:34;;;;;;;;;;;;;;;;;;5091925;28;1226;-71
2023/03/05 15:51:00;;;;;;;;;;;;;;;;;;5077052;28;1302;-71
2023/03/05 15:53:25;;;;;;;;;;;;;;;;;;5109589;28;1195;-71
2023/03/05 15:55:51;;;;;;;;;;;;;;;;;;5106711;28;1279;-71
2023/03/05 15:58:18;;;;;;;;;;;;;;;;;;5095926;28;1176;-69
2023/03/05 16:00:46;;;;;;;;;;;;;;;;;;5092506;28;1906;-69
2023/03/05 16:03:11;;;;;;;;;;;;;;;;;;5093510;28;1235;-70
2023/03/05 16:05:37;;;;;;;;;;;;;;;;;;5084382;28;1234;-70
2023/03/05 16:08:02;;;;;;;;;;;;;;;;;;5101321;28;1214;-69
2023/03/05 16:10:28;;;;;;;;;;;;;;;;;;5092561;28;1249;-69
2023/03/05 16:13:00;;;;;;;;;;;;;;;;;;5093324;28;817;-69
2023/03/05 16:15:26;;;;;;;;;;;;;;;;;;5092940;28;841;-69
2023/03/05 16:17:53;;;;;;;;;;;;;;;;;;5092077;28;1205;-69
2023/03/05 16:20:19;;;;;;;;;;;;;;;;;;5092812;28;1917;-69
2023/03/05 16:22:45;;;;;;;;;;;;;;;;;;5093303;28;904;-69
2023/03/05 16:25:10;;;;;;;;;;;;;;;;;;5091363;28;1317;-69
2023/03/05 16:27:35;;;;;;;;;;;;;;;;;;5091685;28;1139;-69
2023/03/05 16:30:01;;;;;;;;;;;;;;;;;;5091866;28;1295;-69
2023/03/05 16:32:26;;;;;;;;;;;;;;;;;;5092745;28;951;-69
2023/03/05 16:34:51;;;;;;;;;;;;;;;;;;5093368;28;939;-69
2023/03/05 16:37:21;;;;;;;;;;;;;;;;;;5091812;28;963;-70
2023/03/05 16:39:46;;;;;;;;;;;;;;;;;;5075163;28;1971;-69
2023/03/05 16:42:12;;;;;;;;;;;;;;;;;;5091168;28;1268;-69
2023/03/05 16:44:38;;;;;;;;;;;;;;;;;;5090996;28;828;-70
2023/03/05 16:47:03;;;;;;;;;;;;;;;;;;5092240;28;899;-70
2023/03/05 16:49:28;;;;;;;;;;;;;;;;;;5091357;28;1285;-69
2023/03/05 16:51:54;;;;;;;;;;;;;;;;;;5091956;28;1085;-70
2023/03/05 16:54:20;;;;;;;;;;;;;;;;;;5092454;28;1311;-70
2023/03/05 16:56:46;;;;;;;;;;;;;;;;;;5091093;28;1178;-70
2023/03/05 16:59:11;;;;;;;;;;;;;;;;;;5075623;28;1918;-70
2023/03/05 17:01:36;;;;;;;;;;;;;;;;;;5096763;28;832;-69
2023/03/05 17:04:02;;;;;;;;;;;;;;;;;;5095705;28;1186;-70
2023/03/05 17:06:28;;;;;;;;;;;;;;;;;;5097162;28;860;-70
2023/03/05 17:08:54;;;;;;;;;;;;;;;;;;5097097;28;884;-70
2023/03/05 17:11:20;;;;;;;;;;;;;;;;;;5095261;28;1157;-69